sensor_id;sensor_type;location;lat;lon;timestamp;temperature;humidity
18721;DHT22;9489;50.948;3.114;2023-06-04T00:00:37;15.20;99.90
18721;DHT22;9489;50.948;3.114;2023-06-04T00:03:02;15.10;99.90
18721;DHT22;9489;50.948;3.114;2023-06-04T00:05:28;15.10;99.90
18721;DHT22;9489;50.948;3.114;2023-06-04T00:07:54;15.10;99.90
18721;DHT22;9489;50.948;3.114;2023-06-04T00:10:19;15.10;99.90
18721;DHT22;9489;50.948;3.114;2023-06-04T00:12:45;15.00;99.90
18721;DHT22;9489;50.948;3.114;2023-06-04T00:15:12;15.00;99.90
18721;DHT22;9489;50.948;3.114;2023-06-04T00:17:37;15.00;99.90
18721;DHT22;9489;50.948;3.114;2023-06-04T00:20:06;15.00;99.90
18721;DHT22;9489;50.948;3.114;2023-06-04T00:22:32;15.00;99.90
18721;DHT22;9489;50.948;3.114;2023-06-04T00:24:57;15.00;1.00
18721;DHT22;9489;50.948;3.114;2023-06-04T00:27:23;14.90;1.00
18721;DHT22;9489;50.948;3.114;2023-06-04T00:29:49;14.90;1.00
18721;DHT22;9489;50.948;3.114;2023-06-04T00:32:15;14.90;1.00
18721;DHT22;9489;50.948;3.114;2023-06-04T00:34:40;14.80;1.00
18721;DHT22;9489;50.948;3.114;2023-06-04T00:37:06;14.80;1.00
18721;DHT22;9489;50.948;3.114;2023-06-04T00:39:32;14.80;1.00
18721;DHT22;9489;50.948;3.114;2023-06-04T00:41:58;14.80;1.00
18721;DHT22;9489;50.948;3.114;2023-06-04T00:44:23;14.70;1.00
18721;DHT22;9489;50.948;3.114;2023-06-04T00:46:51;14.70;1.00
18721;DHT22;9489;50.948;3.114;2023-06-04T00:49:19;14.70;1.00
18721;DHT22;9489;50.948;3.114;2023-06-04T00:51:45;14.70;1.00
18721;DHT22;9489;50.948;3.114;2023-06-04T00:54:12;14.60;1.00
18721;DHT22;9489;50.948;3.114;2023-06-04T00:56:38;14.60;1.00
18721;DHT22;9489;50.948;3.114;2023-06-04T00:59:07;14.60;1.00
18721;DHT22;9489;50.948;3.114;2023-06-04T01:07:23;14.50;1.00
18721;DHT22;9489;50.948;3.114;2023-06-04T01:09:50;14.50;1.00
18721;DHT22;9489;50.948;3.114;2023-06-04T01:12:16;14.50;1.00
18721;DHT22;9489;50.948;3.114;2023-06-04T01:14:43;14.50;1.00
18721;DHT22;9489;50.948;3.114;2023-06-04T01:22:38;14.40;1.00
18721;DHT22;9489;50.948;3.114;2023-06-04T01:25:13;14.40;1.00
18721;DHT22;9489;50.948;3.114;2023-06-04T01:27:49;14.40;1.00
18721;DHT22;9489;50.948;3.114;2023-06-04T01:30:20;14.40;1.00
18721;DHT22;9489;50.948;3.114;2023-06-04T01:32:45;14.40;1.00
18721;DHT22;9489;50.948;3.114;2023-06-04T01:35:12;14.40;1.00
18721;DHT22;9489;50.948;3.114;2023-06-04T01:37:38;14.40;1.00
18721;DHT22;9489;50.948;3.114;2023-06-04T01:40:04;14.30;1.00
18721;DHT22;9489;50.948;3.114;2023-06-04T01:42:30;14.20;1.00
18721;DHT22;9489;50.948;3.114;2023-06-04T01:44:56;14.20;1.00
18721;DHT22;9489;50.948;3.114;2023-06-04T01:47:22;14.20;1.00
18721;DHT22;9489;50.948;3.114;2023-06-04T01:49:47;14.20;1.00
18721;DHT22;9489;50.948;3.114;2023-06-04T01:52:13;14.20;1.00
18721;DHT22;9489;50.948;3.114;2023-06-04T01:54:39;14.20;1.00
18721;DHT22;9489;50.948;3.114;2023-06-04T01:57:06;14.20;1.00
18721;DHT22;9489;50.948;3.114;2023-06-04T01:59:32;14.20;1.00
18721;DHT22;9489;50.948;3.114;2023-06-04T02:01:58;14.20;1.00
18721;DHT22;9489;50.948;3.114;2023-06-04T02:04:24;14.10;1.00
18721;DHT22;9489;50.948;3.114;2023-06-04T02:06:50;14.10;1.00
18721;DHT22;9489;50.948;3.114;2023-06-04T02:09:16;14.10;1.00
18721;DHT22;9489;50.948;3.114;2023-06-04T02:11:42;14.10;1.00
18721;DHT22;9489;50.948;3.114;2023-06-04T02:14:07;14.00;1.00
18721;DHT22;9489;50.948;3.114;2023-06-04T02:16:33;14.00;1.00
18721;DHT22;9489;50.948;3.114;2023-06-04T02:18:58;13.90;1.00
18721;DHT22;9489;50.948;3.114;2023-06-04T02:21:24;13.90;1.00
18721;DHT22;9489;50.948;3.114;2023-06-04T02:23:50;13.90;1.00
18721;DHT22;9489;50.948;3.114;2023-06-04T02:26:16;13.90;1.00
18721;DHT22;9489;50.948;3.114;2023-06-04T02:28:41;13.90;1.00
18721;DHT22;9489;50.948;3.114;2023-06-04T02:31:07;13.90;1.00
18721;DHT22;9489;50.948;3.114;2023-06-04T02:33:32;13.80;1.00
18721;DHT22;9489;50.948;3.114;2023-06-04T02:35:58;13.80;1.00
18721;DHT22;9489;50.948;3.114;2023-06-04T02:38:24;13.80;1.00
18721;DHT22;9489;50.948;3.114;2023-06-04T02:40:49;13.80;1.00
18721;DHT22;9489;50.948;3.114;2023-06-04T02:43:15;13.70;1.00
18721;DHT22;9489;50.948;3.114;2023-06-04T02:45:41;13.70;1.00
18721;DHT22;9489;50.948;3.114;2023-06-04T02:48:06;13.70;1.00
18721;DHT22;9489;50.948;3.114;2023-06-04T02:50:32;13.70;1.00
18721;DHT22;9489;50.948;3.114;2023-06-04T02:52:58;13.70;1.00
18721;DHT22;9489;50.948;3.114;2023-06-04T02:55:24;13.60;1.00
18721;DHT22;9489;50.948;3.114;2023-06-04T02:57:50;13.60;1.00
18721;DHT22;9489;50.948;3.114;2023-06-04T03:00:17;13.60;1.00
18721;DHT22;9489;50.948;3.114;2023-06-04T03:02:46;13.60;1.00
18721;DHT22;9489;50.948;3.114;2023-06-04T03:05:14;13.50;1.00
18721;DHT22;9489;50.948;3.114;2023-06-04T03:07:42;13.50;1.00
18721;DHT22;9489;50.948;3.114;2023-06-04T03:10:09;13.50;1.00
18721;DHT22;9489;50.948;3.114;2023-06-04T03:12:35;13.50;1.00
18721;DHT22;9489;50.948;3.114;2023-06-04T03:15:01;13.50;1.00
18721;DHT22;9489;50.948;3.114;2023-06-04T03:17:27;13.50;1.00
18721;DHT22;9489;50.948;3.114;2023-06-04T03:19:55;13.50;1.00
18721;DHT22;9489;50.948;3.114;2023-06-04T03:22:21;13.50;1.00
18721;DHT22;9489;50.948;3.114;2023-06-04T03:24:47;13.50;1.00
18721;DHT22;9489;50.948;3.114;2023-06-04T03:27:13;13.50;1.00
18721;DHT22;9489;50.948;3.114;2023-06-04T03:29:38;13.40;1.00
18721;DHT22;9489;50.948;3.114;2023-06-04T03:32:04;13.40;1.00
18721;DHT22;9489;50.948;3.114;2023-06-04T03:34:30;13.40;1.00
18721;DHT22;9489;50.948;3.114;2023-06-04T03:36:59;13.50;1.00
18721;DHT22;9489;50.948;3.114;2023-06-04T03:39:26;13.50;1.00
18721;DHT22;9489;50.948;3.114;2023-06-04T03:41:51;13.40;1.00
18721;DHT22;9489;50.948;3.114;2023-06-04T03:44:18;13.40;1.00
18721;DHT22;9489;50.948;3.114;2023-06-04T03:46:44;13.40;1.00
18721;DHT22;9489;50.948;3.114;2023-06-04T03:49:10;13.40;1.00
18721;DHT22;9489;50.948;3.114;2023-06-04T03:51:37;13.40;1.00
18721;DHT22;9489;50.948;3.114;2023-06-04T03:54:03;13.40;1.00
18721;DHT22;9489;50.948;3.114;2023-06-04T03:56:28;13.40;1.00
18721;DHT22;9489;50.948;3.114;2023-06-04T03:58:54;13.40;1.00
18721;DHT22;9489;50.948;3.114;2023-06-04T04:01:20;13.40;1.00
18721;DHT22;9489;50.948;3.114;2023-06-04T04:03:46;13.40;1.00
18721;DHT22;9489;50.948;3.114;2023-06-04T04:06:17;13.40;1.00
18721;DHT22;9489;50.948;3.114;2023-06-04T04:08:43;13.50;1.00
18721;DHT22;9489;50.948;3.114;2023-06-04T04:11:13;13.50;1.00
18721;DHT22;9489;50.948;3.114;2023-06-04T04:13:39;13.50;1.00
18721;DHT22;9489;50.948;3.114;2023-06-04T04:16:04;13.40;1.00
18721;DHT22;9489;50.948;3.114;2023-06-04T04:18:34;13.40;1.00
18721;DHT22;9489;50.948;3.114;2023-06-04T04:21:01;13.40;1.00
18721;DHT22;9489;50.948;3.114;2023-06-04T04:23:27;13.30;1.00
18721;DHT22;9489;50.948;3.114;2023-06-04T04:25:53;13.40;1.00
18721;DHT22;9489;50.948;3.114;2023-06-04T04:28:19;13.40;1.00
18721;DHT22;9489;50.948;3.114;2023-06-04T04:30:46;13.50;1.00
18721;DHT22;9489;50.948;3.114;2023-06-04T04:33:12;13.50;1.00
18721;DHT22;9489;50.948;3.114;2023-06-04T04:35:41;13.50;1.00
18721;DHT22;9489;50.948;3.114;2023-06-04T04:38:08;13.50;1.00
18721;DHT22;9489;50.948;3.114;2023-06-04T04:40:33;13.50;1.00
18721;DHT22;9489;50.948;3.114;2023-06-04T04:42:59;13.60;1.00
18721;DHT22;9489;50.948;3.114;2023-06-04T04:45:25;13.60;1.00
18721;DHT22;9489;50.948;3.114;2023-06-04T04:47:51;13.70;1.00
18721;DHT22;9489;50.948;3.114;2023-06-04T04:50:16;13.70;1.00
18721;DHT22;9489;50.948;3.114;2023-06-04T04:52:42;13.80;1.00
18721;DHT22;9489;50.948;3.114;2023-06-04T04:55:08;13.80;1.00
18721;DHT22;9489;50.948;3.114;2023-06-04T04:57:35;13.80;1.00
18721;DHT22;9489;50.948;3.114;2023-06-04T05:00:02;13.90;1.00
18721;DHT22;9489;50.948;3.114;2023-06-04T05:02:30;13.90;1.00
18721;DHT22;9489;50.948;3.114;2023-06-04T05:04:56;14.00;1.00
18721;DHT22;9489;50.948;3.114;2023-06-04T05:07:21;14.10;1.00
18721;DHT22;9489;50.948;3.114;2023-06-04T05:09:48;14.10;1.00
18721;DHT22;9489;50.948;3.114;2023-06-04T05:12:14;14.10;1.00
18721;DHT22;9489;50.948;3.114;2023-06-04T05:14:40;14.20;1.00
18721;DHT22;9489;50.948;3.114;2023-06-04T05:17:07;14.20;1.00
18721;DHT22;9489;50.948;3.114;2023-06-04T05:19:36;14.30;1.00
18721;DHT22;9489;50.948;3.114;2023-06-04T05:22:03;14.40;1.00
18721;DHT22;9489;50.948;3.114;2023-06-04T05:24:29;14.50;1.00
18721;DHT22;9489;50.948;3.114;2023-06-04T05:26:55;14.60;1.00
18721;DHT22;9489;50.948;3.114;2023-06-04T05:29:22;14.70;1.00
18721;DHT22;9489;50.948;3.114;2023-06-04T05:31:48;14.80;99.90
18721;DHT22;9489;50.948;3.114;2023-06-04T05:34:13;14.90;99.90
18721;DHT22;9489;50.948;3.114;2023-06-04T05:36:42;15.00;99.90
18721;DHT22;9489;50.948;3.114;2023-06-04T05:39:09;15.10;99.90
18721;DHT22;9489;50.948;3.114;2023-06-04T05:41:36;15.20;1.00
18721;DHT22;9489;50.948;3.114;2023-06-04T05:44:02;15.30;1.00
18721;DHT22;9489;50.948;3.114;2023-06-04T05:46:28;15.30;1.00
18721;DHT22;9489;50.948;3.114;2023-06-04T05:48:54;15.40;1.00
18721;DHT22;9489;50.948;3.114;2023-06-04T05:51:20;15.50;1.00
18721;DHT22;9489;50.948;3.114;2023-06-04T05:53:46;15.70;1.00
18721;DHT22;9489;50.948;3.114;2023-06-04T05:56:12;15.80;99.90
18721;DHT22;9489;50.948;3.114;2023-06-04T05:58:38;15.90;1.00
18721;DHT22;9489;50.948;3.114;2023-06-04T06:01:04;16.00;1.00
18721;DHT22;9489;50.948;3.114;2023-06-04T06:03:30;16.20;57.00
18721;DHT22;9489;50.948;3.114;2023-06-04T06:05:56;16.30;1.00
18721;DHT22;9489;50.948;3.114;2023-06-04T06:08:23;16.40;1.00
18721;DHT22;9489;50.948;3.114;2023-06-04T06:10:49;16.60;99.90
18721;DHT22;9489;50.948;3.114;2023-06-04T06:13:15;16.70;1.00
18721;DHT22;9489;50.948;3.114;2023-06-04T06:15:41;16.80;99.90
18721;DHT22;9489;50.948;3.114;2023-06-04T06:18:07;16.80;1.00
18721;DHT22;9489;50.948;3.114;2023-06-04T06:20:33;16.90;99.90
18721;DHT22;9489;50.948;3.114;2023-06-04T06:23:08;16.80;35.90
18721;DHT22;9489;50.948;3.114;2023-06-04T06:25:34;16.90;1.00
18721;DHT22;9489;50.948;3.114;2023-06-04T06:28:00;17.00;1.00
18721;DHT22;9489;50.948;3.114;2023-06-04T06:30:25;17.10;99.90
18721;DHT22;9489;50.948;3.114;2023-06-04T06:32:51;17.20;1.00
18721;DHT22;9489;50.948;3.114;2023-06-04T06:35:17;17.30;1.00
18721;DHT22;9489;50.948;3.114;2023-06-04T06:37:43;17.40;1.00
18721;DHT22;9489;50.948;3.114;2023-06-04T06:40:09;17.60;99.90
18721;DHT22;9489;50.948;3.114;2023-06-04T06:42:36;17.80;1.00
18721;DHT22;9489;50.948;3.114;2023-06-04T06:45:02;18.00;1.00
18721;DHT22;9489;50.948;3.114;2023-06-04T06:47:27;18.10;1.00
18721;DHT22;9489;50.948;3.114;2023-06-04T06:49:53;18.20;1.00
18721;DHT22;9489;50.948;3.114;2023-06-04T06:52:19;18.40;99.90
18721;DHT22;9489;50.948;3.114;2023-06-04T06:54:46;18.60;99.90
18721;DHT22;9489;50.948;3.114;2023-06-04T06:57:12;18.70;99.90
18721;DHT22;9489;50.948;3.114;2023-06-04T06:59:37;18.90;1.00
18721;DHT22;9489;50.948;3.114;2023-06-04T07:02:04;18.90;1.00
18721;DHT22;9489;50.948;3.114;2023-06-04T07:04:30;19.20;1.00
18721;DHT22;9489;50.948;3.114;2023-06-04T07:06:56;19.40;1.00
18721;DHT22;9489;50.948;3.114;2023-06-04T07:09:21;19.40;1.00
18721;DHT22;9489;50.948;3.114;2023-06-04T07:11:47;19.60;99.90
18721;DHT22;9489;50.948;3.114;2023-06-04T07:14:13;19.70;99.90
18721;DHT22;9489;50.948;3.114;2023-06-04T07:16:39;19.90;99.90
18721;DHT22;9489;50.948;3.114;2023-06-04T07:19:04;20.10;99.90
18721;DHT22;9489;50.948;3.114;2023-06-04T07:21:30;20.30;27.70
18721;DHT22;9489;50.948;3.114;2023-06-04T07:23:56;20.50;1.00
18721;DHT22;9489;50.948;3.114;2023-06-04T07:26:22;20.40;1.00
18721;DHT22;9489;50.948;3.114;2023-06-04T07:28:47;20.60;1.00
18721;DHT22;9489;50.948;3.114;2023-06-04T07:31:16;20.60;1.00
18721;DHT22;9489;50.948;3.114;2023-06-04T07:33:42;20.80;1.00
18721;DHT22;9489;50.948;3.114;2023-06-04T07:36:13;21.10;1.00
18721;DHT22;9489;50.948;3.114;2023-06-04T07:38:39;21.40;1.00
18721;DHT22;9489;50.948;3.114;2023-06-04T07:41:05;21.60;1.00
18721;DHT22;9489;50.948;3.114;2023-06-04T07:43:33;21.40;1.00
18721;DHT22;9489;50.948;3.114;2023-06-04T07:46:00;21.50;1.00
18721;DHT22;9489;50.948;3.114;2023-06-04T07:48:26;21.60;1.00
18721;DHT22;9489;50.948;3.114;2023-06-04T07:50:57;21.80;1.00
18721;DHT22;9489;50.948;3.114;2023-06-04T07:53:23;21.90;99.90
18721;DHT22;9489;50.948;3.114;2023-06-04T07:55:48;22.10;99.90
18721;DHT22;9489;50.948;3.114;2023-06-04T07:58:14;22.30;99.90
18721;DHT22;9489;50.948;3.114;2023-06-04T08:00:40;22.30;99.90
18721;DHT22;9489;50.948;3.114;2023-06-04T08:03:06;22.50;99.90
18721;DHT22;9489;50.948;3.114;2023-06-04T08:05:31;22.90;99.90
18721;DHT22;9489;50.948;3.114;2023-06-04T08:07:57;22.90;99.90
18721;DHT22;9489;50.948;3.114;2023-06-04T08:10:23;23.10;99.90
18721;DHT22;9489;50.948;3.114;2023-06-04T08:12:48;23.10;99.90
18721;DHT22;9489;50.948;3.114;2023-06-04T08:15:14;23.10;99.90
18721;DHT22;9489;50.948;3.114;2023-06-04T08:17:39;23.20;99.90
18721;DHT22;9489;50.948;3.114;2023-06-04T08:20:06;23.50;99.90
18721;DHT22;9489;50.948;3.114;2023-06-04T08:22:32;23.80;99.90
18721;DHT22;9489;50.948;3.114;2023-06-04T08:24:57;24.30;99.90
18721;DHT22;9489;50.948;3.114;2023-06-04T08:27:23;24.30;99.90
18721;DHT22;9489;50.948;3.114;2023-06-04T08:29:48;24.80;99.90
18721;DHT22;9489;50.948;3.114;2023-06-04T08:32:14;25.00;99.90
18721;DHT22;9489;50.948;3.114;2023-06-04T08:34:40;25.30;99.90
18721;DHT22;9489;50.948;3.114;2023-06-04T08:37:05;25.60;99.90
18721;DHT22;9489;50.948;3.114;2023-06-04T08:39:31;25.80;99.90
18721;DHT22;9489;50.948;3.114;2023-06-04T08:42:05;25.80;99.90
18721;DHT22;9489;50.948;3.114;2023-06-04T08:44:33;25.80;99.90
18721;DHT22;9489;50.948;3.114;2023-06-04T08:47:05;25.80;99.90
18721;DHT22;9489;50.948;3.114;2023-06-04T08:49:35;26.10;99.90
18721;DHT22;9489;50.948;3.114;2023-06-04T08:52:02;26.20;99.90
18721;DHT22;9489;50.948;3.114;2023-06-04T08:54:28;26.90;99.90
18721;DHT22;9489;50.948;3.114;2023-06-04T08:56:56;27.40;99.90
18721;DHT22;9489;50.948;3.114;2023-06-04T08:59:22;27.40;99.90
18721;DHT22;9489;50.948;3.114;2023-06-04T09:01:52;27.10;99.90
18721;DHT22;9489;50.948;3.114;2023-06-04T09:04:18;26.70;99.90
18721;DHT22;9489;50.948;3.114;2023-06-04T09:06:44;26.60;99.90
18721;DHT22;9489;50.948;3.114;2023-06-04T09:09:11;26.50;99.90
18721;DHT22;9489;50.948;3.114;2023-06-04T09:11:54;26.80;99.90
18721;DHT22;9489;50.948;3.114;2023-06-04T09:14:21;27.00;99.90
18721;DHT22;9489;50.948;3.114;2023-06-04T09:16:50;27.00;98.60
18721;DHT22;9489;50.948;3.114;2023-06-04T09:19:17;27.10;95.60
18721;DHT22;9489;50.948;3.114;2023-06-04T09:21:56;27.00;94.60
18721;DHT22;9489;50.948;3.114;2023-06-04T09:24:24;27.00;92.40
18721;DHT22;9489;50.948;3.114;2023-06-04T09:26:50;27.40;88.60
18721;DHT22;9489;50.948;3.114;2023-06-04T09:29:17;27.50;83.10
18721;DHT22;9489;50.948;3.114;2023-06-04T09:31:58;27.90;69.20
18721;DHT22;9489;50.948;3.114;2023-06-04T09:34:27;28.00;64.40
18721;DHT22;9489;50.948;3.114;2023-06-04T09:36:54;27.50;62.10
18721;DHT22;9489;50.948;3.114;2023-06-04T09:39:19;27.30;61.90
18721;DHT22;9489;50.948;3.114;2023-06-04T09:41:57;27.20;63.90
18721;DHT22;9489;50.948;3.114;2023-06-04T09:44:24;27.40;59.20
18721;DHT22;9489;50.948;3.114;2023-06-04T09:46:59;27.70;58.20
18721;DHT22;9489;50.948;3.114;2023-06-04T09:49:24;27.40;61.80
18721;DHT22;9489;50.948;3.114;2023-06-04T09:51:50;28.20;60.60
18721;DHT22;9489;50.948;3.114;2023-06-04T09:54:16;28.60;52.40
18721;DHT22;9489;50.948;3.114;2023-06-04T09:56:42;28.80;49.60
18721;DHT22;9489;50.948;3.114;2023-06-04T09:59:09;28.90;49.00
18721;DHT22;9489;50.948;3.114;2023-06-04T10:01:38;29.30;46.40
18721;DHT22;9489;50.948;3.114;2023-06-04T10:04:07;29.20;43.10
18721;DHT22;9489;50.948;3.114;2023-06-04T10:06:34;29.50;42.20
18721;DHT22;9489;50.948;3.114;2023-06-04T10:09:05;29.70;39.80
18721;DHT22;9489;50.948;3.114;2023-06-04T10:11:35;29.60;36.10
18721;DHT22;9489;50.948;3.114;2023-06-04T10:14:03;29.70;34.50
18721;DHT22;9489;50.948;3.114;2023-06-04T10:16:31;29.90;34.40
18721;DHT22;9489;50.948;3.114;2023-06-04T10:18:59;30.20;34.10
18721;DHT22;9489;50.948;3.114;2023-06-04T10:21:26;29.80;28.80
18721;DHT22;9489;50.948;3.114;2023-06-04T10:23:52;29.70;25.20
18721;DHT22;9489;50.948;3.114;2023-06-04T10:26:18;29.60;24.50
18721;DHT22;9489;50.948;3.114;2023-06-04T10:28:44;29.50;23.40
18721;DHT22;9489;50.948;3.114;2023-06-04T10:31:10;29.60;24.10
18721;DHT22;9489;50.948;3.114;2023-06-04T10:33:37;29.90;23.50
18721;DHT22;9489;50.948;3.114;2023-06-04T10:36:23;29.50;20.40
18721;DHT22;9489;50.948;3.114;2023-06-04T10:38:53;29.80;20.30
18721;DHT22;9489;50.948;3.114;2023-06-04T10:41:20;29.50;19.30
18721;DHT22;9489;50.948;3.114;2023-06-04T10:43:50;29.80;19.40
18721;DHT22;9489;50.948;3.114;2023-06-04T10:46:18;29.50;17.40
18721;DHT22;9489;50.948;3.114;2023-06-04T10:48:51;29.60;18.00
18721;DHT22;9489;50.948;3.114;2023-06-04T10:51:29;30.00;16.30
18721;DHT22;9489;50.948;3.114;2023-06-04T10:53:57;30.30;19.00
18721;DHT22;9489;50.948;3.114;2023-06-04T10:56:30;30.40;17.20
18721;DHT22;9489;50.948;3.114;2023-06-04T10:59:01;30.40;15.20
18721;DHT22;9489;50.948;3.114;2023-06-04T11:01:37;30.80;15.40
18721;DHT22;9489;50.948;3.114;2023-06-04T11:04:03;30.30;11.40
18721;DHT22;9489;50.948;3.114;2023-06-04T11:06:28;30.10;9.50
18721;DHT22;9489;50.948;3.114;2023-06-04T11:09:04;30.00;9.80
18721;DHT22;9489;50.948;3.114;2023-06-04T11:11:31;30.10;7.80
18721;DHT22;9489;50.948;3.114;2023-06-04T11:14:07;29.80;8.20
18721;DHT22;9489;50.948;3.114;2023-06-04T11:16:34;30.00;8.20
18721;DHT22;9489;50.948;3.114;2023-06-04T11:18:59;30.20;8.10
18721;DHT22;9489;50.948;3.114;2023-06-04T11:21:25;30.20;7.50
18721;DHT22;9489;50.948;3.114;2023-06-04T11:24:00;30.10;6.30
18721;DHT22;9489;50.948;3.114;2023-06-04T11:26:39;30.00;5.20
18721;DHT22;9489;50.948;3.114;2023-06-04T11:29:10;30.00;6.50
18721;DHT22;9489;50.948;3.114;2023-06-04T11:31:45;30.20;5.50
18721;DHT22;9489;50.948;3.114;2023-06-04T11:34:28;30.10;3.70
18721;DHT22;9489;50.948;3.114;2023-06-04T11:36:54;29.70;4.60
18721;DHT22;9489;50.948;3.114;2023-06-04T11:39:21;29.70;5.50
18721;DHT22;9489;50.948;3.114;2023-06-04T11:41:47;29.50;4.50
18721;DHT22;9489;50.948;3.114;2023-06-04T11:44:14;29.40;4.90
18721;DHT22;9489;50.948;3.114;2023-06-04T11:46:43;29.30;2.80
18721;DHT22;9489;50.948;3.114;2023-06-04T11:49:15;29.40;3.50
18721;DHT22;9489;50.948;3.114;2023-06-04T11:51:51;29.50;2.30
18721;DHT22;9489;50.948;3.114;2023-06-04T11:54:19;29.60;2.50
18721;DHT22;9489;50.948;3.114;2023-06-04T11:56:48;29.50;3.60
18721;DHT22;9489;50.948;3.114;2023-06-04T11:59:15;29.30;1.90
18721;DHT22;9489;50.948;3.114;2023-06-04T12:01:45;29.60;2.00
18721;DHT22;9489;50.948;3.114;2023-06-04T12:04:16;29.50;2.20
18721;DHT22;9489;50.948;3.114;2023-06-04T12:06:54;29.60;1.30
18721;DHT22;9489;50.948;3.114;2023-06-04T12:09:24;29.10;1.20
18721;DHT22;9489;50.948;3.114;2023-06-04T12:11:58;29.10;8.10
18721;DHT22;9489;50.948;3.114;2023-06-04T12:14:24;29.10;1.00
18721;DHT22;9489;50.948;3.114;2023-06-04T12:17:09;29.10;1.10
18721;DHT22;9489;50.948;3.114;2023-06-04T12:19:46;29.10;1.00
18721;DHT22;9489;50.948;3.114;2023-06-04T12:22:13;29.00;1.40
18721;DHT22;9489;50.948;3.114;2023-06-04T12:24:56;29.20;2.10
18721;DHT22;9489;50.948;3.114;2023-06-04T12:27:24;29.20;1.00
18721;DHT22;9489;50.948;3.114;2023-06-04T12:30:05;29.00;1.00
18721;DHT22;9489;50.948;3.114;2023-06-04T12:32:35;28.50;1.00
18721;DHT22;9489;50.948;3.114;2023-06-04T12:35:01;28.30;1.00
18721;DHT22;9489;50.948;3.114;2023-06-04T12:37:27;28.00;1.00
18721;DHT22;9489;50.948;3.114;2023-06-04T12:39:53;28.10;1.00
18721;DHT22;9489;50.948;3.114;2023-06-04T12:42:19;28.30;1.00
18721;DHT22;9489;50.948;3.114;2023-06-04T12:44:46;28.10;1.00
18721;DHT22;9489;50.948;3.114;2023-06-04T12:47:12;28.30;1.90
18721;DHT22;9489;50.948;3.114;2023-06-04T12:49:38;28.30;1.00
18721;DHT22;9489;50.948;3.114;2023-06-04T12:52:04;28.10;15.70
18721;DHT22;9489;50.948;3.114;2023-06-04T12:54:30;28.10;1.20
18721;DHT22;9489;50.948;3.114;2023-06-04T12:56:56;28.20;1.00
18721;DHT22;9489;50.948;3.114;2023-06-04T12:59:27;28.30;1.00
18721;DHT22;9489;50.948;3.114;2023-06-04T13:01:53;28.10;1.20
18721;DHT22;9489;50.948;3.114;2023-06-04T13:04:19;27.80;1.60
18721;DHT22;9489;50.948;3.114;2023-06-04T13:06:44;28.00;1.00
18721;DHT22;9489;50.948;3.114;2023-06-04T13:09:13;28.00;1.00
18721;DHT22;9489;50.948;3.114;2023-06-04T13:11:40;28.00;1.00
18721;DHT22;9489;50.948;3.114;2023-06-04T13:14:07;27.70;1.00
18721;DHT22;9489;50.948;3.114;2023-06-04T13:16:33;27.70;1.00
18721;DHT22;9489;50.948;3.114;2023-06-04T13:18:59;27.70;1.00
18721;DHT22;9489;50.948;3.114;2023-06-04T13:21:25;27.70;1.60
18721;DHT22;9489;50.948;3.114;2023-06-04T13:23:50;27.70;1.00
18721;DHT22;9489;50.948;3.114;2023-06-04T13:26:17;27.90;1.00
18721;DHT22;9489;50.948;3.114;2023-06-04T13:28:43;28.00;1.80
18721;DHT22;9489;50.948;3.114;2023-06-04T13:31:08;27.70;1.00
18721;DHT22;9489;50.948;3.114;2023-06-04T13:33:34;27.50;1.00
18721;DHT22;9489;50.948;3.114;2023-06-04T13:36:02;27.50;1.00
18721;DHT22;9489;50.948;3.114;2023-06-04T13:38:27;27.60;1.00
18721;DHT22;9489;50.948;3.114;2023-06-04T13:40:53;27.80;1.00
18721;DHT22;9489;50.948;3.114;2023-06-04T13:43:19;27.90;4.10
18721;DHT22;9489;50.948;3.114;2023-06-04T13:45:44;28.00;29.00
18721;DHT22;9489;50.948;3.114;2023-06-04T13:48:12;27.70;17.80
18721;DHT22;9489;50.948;3.114;2023-06-04T13:50:37;27.60;22.20
18721;DHT22;9489;50.948;3.114;2023-06-04T13:53:03;27.30;26.30
18721;DHT22;9489;50.948;3.114;2023-06-04T13:55:29;27.30;28.20
18721;DHT22;9489;50.948;3.114;2023-06-04T13:57:55;27.10;33.80
18721;DHT22;9489;50.948;3.114;2023-06-04T14:00:21;27.20;38.50
18721;DHT22;9489;50.948;3.114;2023-06-04T14:02:48;27.20;36.80
18721;DHT22;9489;50.948;3.114;2023-06-04T14:05:14;26.90;60.80
18721;DHT22;9489;50.948;3.114;2023-06-04T14:07:44;26.90;44.50
18721;DHT22;9489;50.948;3.114;2023-06-04T14:10:10;26.70;50.40
18721;DHT22;9489;50.948;3.114;2023-06-04T14:12:39;26.40;52.50
18721;DHT22;9489;50.948;3.114;2023-06-04T14:15:09;26.10;58.60
18721;DHT22;9489;50.948;3.114;2023-06-04T14:17:36;26.20;65.60
18721;DHT22;9489;50.948;3.114;2023-06-04T14:20:02;26.10;70.20
18721;DHT22;9489;50.948;3.114;2023-06-04T14:22:33;26.10;75.20
18721;DHT22;9489;50.948;3.114;2023-06-04T14:24:59;26.30;75.60
18721;DHT22;9489;50.948;3.114;2023-06-04T14:27:25;26.10;80.70
18721;DHT22;9489;50.948;3.114;2023-06-04T14:29:50;25.90;85.50
18721;DHT22;9489;50.948;3.114;2023-06-04T14:32:16;25.80;88.70
18721;DHT22;9489;50.948;3.114;2023-06-04T14:34:42;25.80;92.80
18721;DHT22;9489;50.948;3.114;2023-06-04T14:37:07;25.80;95.00
18721;DHT22;9489;50.948;3.114;2023-06-04T14:39:33;25.70;93.50
18721;DHT22;9489;50.948;3.114;2023-06-04T14:41:58;25.70;93.80
18721;DHT22;9489;50.948;3.114;2023-06-04T14:44:24;25.50;95.00
18721;DHT22;9489;50.948;3.114;2023-06-04T14:46:50;25.40;96.50
18721;DHT22;9489;50.948;3.114;2023-06-04T14:49:16;25.40;98.50
18721;DHT22;9489;50.948;3.114;2023-06-04T14:51:42;25.50;99.90
18721;DHT22;9489;50.948;3.114;2023-06-04T14:54:08;25.50;99.90
18721;DHT22;9489;50.948;3.114;2023-06-04T14:56:33;25.60;99.90
18721;DHT22;9489;50.948;3.114;2023-06-04T14:58:59;25.60;99.90
18721;DHT22;9489;50.948;3.114;2023-06-04T15:01:26;25.30;99.90
18721;DHT22;9489;50.948;3.114;2023-06-04T15:03:51;25.20;99.90
18721;DHT22;9489;50.948;3.114;2023-06-04T15:06:18;25.20;99.90
18721;DHT22;9489;50.948;3.114;2023-06-04T15:08:44;24.90;99.90
18721;DHT22;9489;50.948;3.114;2023-06-04T15:11:10;24.80;99.90
18721;DHT22;9489;50.948;3.114;2023-06-04T15:13:36;24.80;99.90
18721;DHT22;9489;50.948;3.114;2023-06-04T15:16:02;24.70;99.90
18721;DHT22;9489;50.948;3.114;2023-06-04T15:18:28;24.50;99.90
18721;DHT22;9489;50.948;3.114;2023-06-04T15:20:54;24.50;99.90
18721;DHT22;9489;50.948;3.114;2023-06-04T15:23:19;24.20;99.90
18721;DHT22;9489;50.948;3.114;2023-06-04T15:25:45;24.30;99.90
18721;DHT22;9489;50.948;3.114;2023-06-04T15:28:11;24.50;99.90
18721;DHT22;9489;50.948;3.114;2023-06-04T15:30:36;24.40;99.90
18721;DHT22;9489;50.948;3.114;2023-06-04T15:33:02;24.20;99.90
18721;DHT22;9489;50.948;3.114;2023-06-04T15:35:28;24.00;99.90
18721;DHT22;9489;50.948;3.114;2023-06-04T15:37:53;23.90;99.90
18721;DHT22;9489;50.948;3.114;2023-06-04T15:40:19;23.90;99.90
18721;DHT22;9489;50.948;3.114;2023-06-04T15:42:45;23.90;99.90
18721;DHT22;9489;50.948;3.114;2023-06-04T15:45:11;24.00;99.90
18721;DHT22;9489;50.948;3.114;2023-06-04T15:47:36;24.10;99.90
18721;DHT22;9489;50.948;3.114;2023-06-04T15:50:02;24.00;99.90
18721;DHT22;9489;50.948;3.114;2023-06-04T15:52:28;23.90;99.90
18721;DHT22;9489;50.948;3.114;2023-06-04T15:54:54;23.70;99.90
18721;DHT22;9489;50.948;3.114;2023-06-04T15:57:19;23.50;99.90
18721;DHT22;9489;50.948;3.114;2023-06-04T15:59:45;23.30;99.90
18721;DHT22;9489;50.948;3.114;2023-06-04T16:02:11;23.10;99.90
18721;DHT22;9489;50.948;3.114;2023-06-04T16:04:36;22.90;99.90